createdAt,value
2022-11-15T00:00:55.937Z,27.85
2022-11-15T00:03:24.979Z,25.25
2022-11-15T00:05:51.822Z,28.80
2022-11-15T00:08:18.534Z,16.23
2022-11-15T00:10:56.676Z,17.20
2022-11-15T00:13:23.662Z,18.13
2022-11-15T00:15:50.316Z,14.15
2022-11-15T00:18:17.588Z,12.50
2022-11-15T00:20:44.790Z,14.10
2022-11-15T00:23:11.690Z,14.05
2022-11-15T00:25:38.425Z,13.85
2022-11-15T00:28:05.272Z,15.05
2022-11-15T00:30:31.988Z,13.88
2022-11-15T00:33:04.271Z,13.43
2022-11-15T00:35:34.488Z,14.48
2022-11-15T00:38:01.760Z,12.18
2022-11-15T00:40:29.031Z,21.55
2022-11-15T00:42:55.730Z,14.98
2022-11-15T00:45:22.364Z,24.05
2022-11-15T00:47:49.064Z,19.42
2022-11-15T00:50:16.075Z,25.48
2022-11-15T00:52:43.007Z,22.83
2022-11-15T00:55:17.788Z,27.05
2022-11-15T00:57:44.927Z,26.83
2022-11-15T01:00:12.753Z,29.15
2022-11-15T01:02:39.515Z,22.52
2022-11-15T01:05:07.473Z,25.48
2022-11-15T01:07:34.459Z,28.60
2022-11-15T01:10:01.315Z,23.17
2022-11-15T01:12:28.311Z,24.77
2022-11-15T01:14:55.095Z,27.58
2022-11-15T01:17:21.898Z,26.00
2022-11-15T01:19:48.638Z,22.75
2022-11-15T01:22:15.426Z,25.00
2022-11-15T01:24:42.337Z,24.83
2022-11-15T01:27:09.306Z,26.17
2022-11-15T01:29:36.218Z,22.45
2022-11-15T01:32:03.001Z,20.52
2022-11-15T01:34:29.640Z,22.42
2022-11-15T01:36:56.383Z,22.38
2022-11-15T01:39:23.261Z,23.95
2022-11-15T01:41:49.972Z,22.88
2022-11-15T01:44:34.900Z,22.15
2022-11-15T01:47:18.986Z,19.63
2022-11-15T01:50:04.995Z,21.10
2022-11-15T01:52:34.337Z,18.88
2022-11-15T01:55:03.585Z,18.35
2022-11-15T01:57:31.025Z,18.95
2022-11-15T01:59:59.494Z,17.73
2022-11-15T02:02:26.640Z,16.08
2022-11-15T02:04:53.419Z,12.82
2022-11-15T02:07:22.910Z,18.10
2022-11-15T02:09:51.103Z,16.63
2022-11-15T02:12:20.801Z,13.77
2022-11-15T02:14:52.740Z,16.52
2022-11-15T02:17:38.154Z,15.75
2022-11-15T02:20:16.729Z,13.15
2022-11-15T02:23:05.800Z,19.23
2022-11-15T02:25:53.633Z,17.52
2022-11-15T02:28:32.569Z,16.85
2022-11-15T02:31:44.175Z,19.20
2022-11-15T02:34:41.685Z,23.15
2022-11-15T02:37:50.363Z,25.95
2022-11-15T02:40:55.736Z,20.75
2022-11-15T02:43:57.913Z,23.48
2022-11-15T02:46:56.012Z,29.92
2022-11-15T02:49:25.711Z,23.52
2022-11-15T02:51:54.147Z,22.00
2022-11-15T02:54:24.045Z,29.25
2022-11-15T02:56:54.384Z,26.67
2022-11-15T02:59:36.226Z,25.55
2022-11-15T03:02:29.956Z,25.55
2022-11-15T03:05:16.967Z,22.38
2022-11-15T03:08:04.320Z,25.65
2022-11-15T03:10:31.053Z,25.42
2022-11-15T03:13:08.119Z,26.50
2022-11-15T03:15:43.410Z,23.77
2022-11-15T03:18:34.885Z,21.98
2022-11-15T03:21:06.085Z,22.67
2022-11-15T03:23:34.972Z,21.27
2022-11-15T03:26:02.590Z,21.85
2022-11-15T03:28:36.182Z,21.42
2022-11-15T03:31:25.049Z,21.08
2022-11-15T03:33:55.885Z,21.73
2022-11-15T03:36:24.679Z,19.77
2022-11-15T03:38:58.439Z,20.95
2022-11-15T03:41:33.571Z,21.08
2022-11-15T03:44:17.787Z,22.52
2022-11-15T03:46:50.918Z,18.58
2022-11-15T03:49:27.015Z,21.42
2022-11-15T03:54:38.442Z,24.02
2022-11-15T03:57:07.525Z,25.15
2022-11-15T03:59:34.131Z,25.98
2022-11-15T04:02:01.007Z,29.33
2022-11-15T04:04:27.830Z,23.65
2022-11-15T04:06:54.463Z,25.63
2022-11-15T04:09:21.186Z,23.13
2022-11-15T04:11:48.012Z,30.63
2022-11-15T04:14:14.725Z,27.42
2022-11-15T04:16:44.064Z,28.67
2022-11-15T04:19:29.404Z,23.92
2022-11-15T04:22:14.602Z,27.08
2022-11-15T04:24:41.355Z,22.95
2022-11-15T04:27:08.134Z,22.80
2022-11-15T04:29:36.126Z,25.20
2022-11-15T04:32:07.414Z,22.35
2022-11-15T04:34:34.425Z,29.50
2022-11-15T04:37:13.278Z,23.60
2022-11-15T04:39:41.476Z,23.70
2022-11-15T04:42:08.814Z,25.58
2022-11-15T04:44:35.597Z,25.13
2022-11-15T04:47:02.787Z,27.25
2022-11-15T04:49:29.462Z,22.90
2022-11-15T04:51:56.932Z,25.25
2022-11-15T04:54:23.617Z,23.33
2022-11-15T04:56:50.362Z,28.20
2022-11-15T04:59:17.045Z,31.58
2022-11-15T05:01:45.043Z,28.15
2022-11-15T05:04:21.578Z,32.63
2022-11-15T05:06:52.658Z,27.33
2022-11-15T05:09:20.951Z,24.83
2022-11-15T05:11:48.193Z,28.27
2022-11-15T05:14:15.305Z,30.33
2022-11-15T05:16:42.745Z,27.15
2022-11-15T05:19:09.703Z,21.80
2022-11-15T05:21:36.647Z,25.20
2022-11-15T05:24:03.702Z,22.75
2022-11-15T05:26:30.768Z,27.05
2022-11-15T05:28:59.909Z,28.45
2022-11-15T05:31:27.939Z,29.55
2022-11-15T05:33:56.400Z,29.65
2022-11-15T05:36:28.703Z,27.38
2022-11-15T05:38:55.807Z,27.60
2022-11-15T05:41:32.724Z,29.38
2022-11-15T05:44:00.648Z,27.95
2022-11-15T05:46:27.590Z,29.63
2022-11-15T05:48:56.375Z,26.25
2022-11-15T05:51:24.217Z,26.00
2022-11-15T05:53:52.917Z,27.58
2022-11-15T05:56:20.279Z,26.73
2022-11-15T05:58:47.148Z,26.88
2022-11-15T06:01:13.899Z,32.03
2022-11-15T06:03:41.023Z,25.45
2022-11-15T06:06:09.991Z,32.90
2022-11-15T06:08:49.296Z,27.55
2022-11-15T06:11:16.063Z,26.17
2022-11-15T06:13:43.102Z,27.58
2022-11-15T06:16:09.831Z,29.77
2022-11-15T06:18:37.523Z,28.10
2022-11-15T06:21:04.974Z,31.88
2022-11-15T06:23:36.234Z,34.38
2022-11-15T06:26:04.141Z,31.10
2022-11-15T06:28:32.851Z,31.95
2022-11-15T06:31:13.254Z,25.02
2022-11-15T06:33:40.764Z,30.80
2022-11-15T06:36:16.077Z,35.58
2022-11-15T06:38:47.136Z,32.47
2022-11-15T06:41:15.381Z,30.65
2022-11-15T06:43:42.403Z,31.63
2022-11-15T06:46:09.893Z,30.23
2022-11-15T06:48:37.441Z,32.47
2022-11-15T06:51:05.519Z,29.10
2022-11-15T06:53:33.732Z,32.22
2022-11-15T06:56:09.037Z,37.10
2022-11-15T06:58:36.582Z,32.58
2022-11-15T07:01:06.553Z,37.15
2022-11-15T07:03:35.637Z,30.27
2022-11-15T07:06:07.127Z,38.03
2022-11-15T07:08:35.210Z,37.65
2022-11-15T07:11:09.187Z,36.42
2022-11-15T07:13:37.287Z,35.30
2022-11-15T07:16:08.938Z,32.83
2022-11-15T07:18:38.114Z,31.40
2022-11-15T07:21:06.916Z,30.58
2022-11-15T07:23:34.220Z,34.75
2022-11-15T07:26:01.623Z,25.95
2022-11-15T07:28:28.923Z,38.08
2022-11-15T07:30:55.711Z,33.67
2022-11-15T07:33:22.957Z,36.38
2022-11-15T07:35:50.404Z,33.45
2022-11-15T07:38:20.758Z,39.25
2022-11-15T07:40:48.114Z,37.28
2022-11-15T07:43:14.816Z,31.88
2022-11-15T07:45:43.874Z,44.40
2022-11-15T07:48:11.214Z,34.75
2022-11-15T07:50:41.209Z,34.53
2022-11-15T07:53:09.716Z,36.63
2022-11-15T07:55:36.648Z,38.38
2022-11-15T07:58:05.279Z,42.10
2022-11-15T08:00:32.411Z,33.45
2022-11-15T08:03:04.368Z,40.25
2022-11-15T08:05:31.081Z,38.58
2022-11-15T08:07:57.932Z,42.63
2022-11-15T08:10:24.995Z,36.05
2022-11-15T08:13:02.041Z,43.45
2022-11-15T08:15:29.895Z,35.83
2022-11-15T08:18:03.453Z,34.97
2022-11-15T08:20:31.696Z,39.97
2022-11-15T08:23:00.105Z,31.20
2022-11-15T08:25:28.875Z,36.55
2022-11-15T08:27:57.767Z,43.80
2022-11-15T08:30:25.023Z,40.45
2022-11-15T08:32:53.306Z,41.75
2022-11-15T08:35:24.880Z,39.28
2022-11-15T08:37:55.471Z,39.35
2022-11-15T08:40:23.696Z,40.45
2022-11-15T08:42:50.501Z,42.28
2022-11-15T08:45:17.393Z,33.45
2022-11-15T08:47:51.079Z,36.13
2022-11-15T08:50:21.328Z,37.67
2022-11-15T08:52:51.723Z,33.28
2022-11-15T08:55:18.439Z,36.03
2022-11-15T08:57:45.374Z,36.67
2022-11-15T09:00:13.805Z,38.03
2022-11-15T09:02:41.342Z,29.33
2022-11-15T09:05:08.705Z,31.65
2022-11-15T09:07:37.050Z,35.42
2022-11-15T09:10:04.440Z,36.47
2022-11-15T09:12:31.517Z,27.63
2022-11-15T09:14:59.552Z,31.35
2022-11-15T09:17:26.229Z,38.92
2022-11-15T09:19:52.952Z,36.45
2022-11-15T09:22:22.307Z,39.53
2022-11-15T09:24:49.963Z,36.83
2022-11-15T09:30:00.804Z,32.63
2022-11-15T09:32:35.049Z,31.42
2022-11-15T09:35:06.085Z,31.65
2022-11-15T09:37:33.507Z,39.72
2022-11-15T09:40:01.843Z,34.08
2022-11-15T09:42:37.812Z,32.50
2022-11-15T09:45:29.994Z,29.65
2022-11-15T09:48:12.435Z,35.33
2022-11-15T09:50:51.845Z,29.80
2022-11-15T09:56:30.525Z,33.65
2022-11-15T09:59:24.449Z,31.98
2022-11-15T10:02:05.167Z,31.50
2022-11-15T10:04:33.149Z,32.72
2022-11-15T10:07:08.881Z,30.08
2022-11-15T10:09:47.371Z,32.45
2022-11-15T10:12:15.185Z,30.58
2022-11-15T10:14:42.946Z,30.08
2022-11-15T10:17:16.111Z,24.75
2022-11-15T10:19:54.623Z,27.63
2022-11-15T10:22:39.578Z,30.17
2022-11-15T10:25:09.366Z,26.77
2022-11-15T10:27:36.561Z,26.13
2022-11-15T10:30:14.936Z,31.00
2022-11-15T10:32:45.488Z,27.00
2022-11-15T10:35:26.105Z,28.13
2022-11-15T10:37:53.185Z,28.48
2022-11-15T10:43:17.512Z,23.67
2022-11-15T10:45:45.798Z,26.67
2022-11-15T10:48:18.600Z,23.48
2022-11-15T10:50:47.553Z,26.40
2022-11-15T10:53:29.303Z,23.55
2022-11-15T10:56:00.667Z,24.73
2022-11-15T10:58:31.125Z,20.90
2022-11-15T11:01:18.427Z,28.73
2022-11-15T11:03:59.418Z,23.10
2022-11-15T11:06:26.542Z,28.02
2022-11-15T11:09:04.247Z,22.38
2022-11-15T11:11:50.713Z,22.92
2022-11-15T11:14:32.475Z,23.65
2022-11-15T11:17:20.658Z,29.48
2022-11-15T11:19:50.861Z,26.67
2022-11-15T11:22:54.922Z,21.92
2022-11-15T11:25:42.426Z,24.42
2022-11-15T11:28:40.111Z,25.17
2022-11-15T11:31:19.341Z,21.63
2022-11-15T11:33:57.825Z,22.42
2022-11-15T11:36:41.642Z,25.33
2022-11-15T11:39:30.339Z,22.10
2022-11-15T11:42:19.432Z,23.92
2022-11-15T11:45:11.415Z,27.23
2022-11-15T11:47:45.792Z,27.70
2022-11-15T11:50:28.981Z,24.48
2022-11-15T11:53:03.586Z,22.88
2022-11-15T11:55:37.489Z,21.02
2022-11-15T11:58:32.330Z,26.20
2022-11-15T12:01:21.607Z,19.48
2022-11-15T12:03:57.758Z,23.50
2022-11-15T12:06:24.402Z,25.73
2022-11-15T12:09:06.490Z,23.48
2022-11-15T12:11:54.556Z,24.95
2022-11-15T12:14:33.829Z,22.05
2022-11-15T12:17:00.845Z,21.90
2022-11-15T12:19:28.123Z,19.55
2022-11-15T12:22:22.381Z,17.40
2022-11-15T12:24:57.895Z,18.58
2022-11-15T12:27:43.712Z,22.83
2022-11-15T12:30:21.721Z,22.27
2022-11-15T12:32:56.021Z,17.95
2022-11-15T12:35:28.078Z,16.45
2022-11-15T12:37:56.903Z,17.23
2022-11-15T12:40:27.313Z,17.45
2022-11-15T12:43:17.418Z,16.85
2022-11-15T12:45:46.030Z,15.05
2022-11-15T12:48:19.118Z,17.27
2022-11-15T12:50:52.169Z,16.17
2022-11-15T12:53:31.558Z,15.57
2022-11-15T12:56:13.592Z,16.48
2022-11-15T12:58:45.058Z,17.50
2022-11-15T13:01:32.134Z,13.93
2022-11-15T13:04:21.261Z,19.17
2022-11-15T13:06:53.321Z,18.00
2022-11-15T13:09:35.417Z,17.60
2022-11-15T13:12:35.353Z,14.30
2022-11-15T13:15:24.596Z,19.25
2022-11-15T13:17:56.083Z,17.90
2022-11-15T13:20:31.354Z,16.17
2022-11-15T13:23:10.437Z,20.13
2022-11-15T13:25:37.892Z,17.30
2022-11-15T13:28:24.165Z,17.13
2022-11-15T13:30:57.477Z,16.92
2022-11-15T13:33:36.386Z,17.35
2022-11-15T13:36:19.139Z,18.27
2022-11-15T13:38:55.186Z,19.45
2022-11-15T13:41:25.293Z,21.42
2022-11-15T13:43:54.389Z,18.20
2022-11-15T13:46:25.690Z,15.93
2022-11-15T13:48:57.642Z,17.75
2022-11-15T13:51:33.462Z,17.38
2022-11-15T13:54:23.972Z,18.90
2022-11-15T13:57:02.750Z,21.65
2022-11-15T13:59:33.171Z,16.80
2022-11-15T14:02:12.552Z,17.13
2022-11-15T14:04:47.373Z,18.55
2022-11-15T14:07:21.046Z,20.48
2022-11-15T14:09:51.149Z,15.27
2022-11-15T14:12:26.192Z,16.83
2022-11-15T14:14:53.609Z,19.23
2022-11-15T14:17:29.270Z,20.58
2022-11-15T14:19:57.123Z,23.80
2022-11-15T14:22:29.723Z,20.45
2022-11-15T14:25:08.732Z,17.10
2022-11-15T14:27:35.905Z,17.85
2022-11-15T14:30:07.088Z,16.30
2022-11-15T14:33:00.469Z,17.27
2022-11-15T14:35:27.247Z,14.98
2022-11-15T14:37:54.310Z,20.00
2022-11-15T14:40:23.193Z,19.08
2022-11-15T14:42:51.055Z,15.90
2022-11-15T14:45:21.418Z,19.20
2022-11-15T14:47:49.148Z,17.20
2022-11-15T14:50:19.266Z,16.33
2022-11-15T14:52:46.943Z,18.40
2022-11-15T14:55:27.103Z,21.40
2022-11-15T14:57:54.761Z,17.85
2022-11-15T15:00:22.479Z,18.20
2022-11-15T15:02:51.740Z,19.90
2022-11-15T15:05:21.717Z,15.95
2022-11-15T15:07:49.416Z,18.70
2022-11-15T15:10:38.964Z,20.35
2022-11-15T15:13:06.936Z,19.50
2022-11-15T15:15:39.151Z,22.60
2022-11-15T15:18:06.368Z,25.08
2022-11-15T15:20:33.942Z,23.05
2022-11-15T15:23:01.122Z,23.20
2022-11-15T15:25:38.357Z,19.75
2022-11-15T15:28:05.512Z,24.88
2022-11-15T15:30:32.376Z,23.75
2022-11-15T15:32:59.241Z,28.15
2022-11-15T15:35:32.056Z,25.55
2022-11-15T15:38:01.162Z,23.73
2022-11-15T15:40:33.892Z,25.60
2022-11-15T15:43:00.936Z,27.55
2022-11-15T15:45:28.824Z,29.27
2022-11-15T15:48:03.418Z,26.27
2022-11-15T15:50:33.760Z,26.48
2022-11-15T15:53:04.802Z,25.45
2022-11-15T15:55:32.850Z,27.23
2022-11-15T15:57:59.519Z,28.08
2022-11-15T16:00:27.076Z,28.67
2022-11-15T16:02:54.717Z,29.98
2022-11-15T16:05:22.880Z,32.88
2022-11-15T16:07:50.002Z,29.63
2022-11-15T16:10:28.069Z,25.15
2022-11-15T16:12:56.622Z,27.55
2022-11-15T16:15:25.020Z,26.27
2022-11-15T16:17:54.857Z,22.58
2022-11-15T16:20:39.017Z,30.17
2022-11-15T16:23:09.696Z,26.17
2022-11-15T16:25:48.816Z,27.58
2022-11-15T16:28:23.275Z,28.20
2022-11-15T16:30:56.545Z,30.45
2022-11-15T16:33:25.216Z,32.70
2022-11-15T16:35:52.168Z,31.08
2022-11-15T16:38:18.906Z,33.30
2022-11-15T16:40:45.910Z,34.95
2022-11-15T16:43:12.702Z,25.95
2022-11-15T16:45:40.086Z,26.85
2022-11-15T16:48:06.866Z,27.52
2022-11-15T16:50:41.552Z,27.40
2022-11-15T16:53:08.272Z,30.92
2022-11-15T16:55:35.359Z,31.27
2022-11-15T16:58:03.056Z,24.42
2022-11-15T17:00:30.081Z,29.58
2022-11-15T17:05:41.137Z,30.83
2022-11-15T17:08:08.787Z,24.52
2022-11-15T17:10:44.072Z,27.25
2022-11-15T17:13:14.248Z,26.15
2022-11-15T17:15:59.025Z,28.90
2022-11-15T17:18:26.530Z,24.75
2022-11-15T17:20:54.798Z,23.35
2022-11-15T17:23:24.847Z,26.92
2022-11-15T17:26:12.103Z,28.17
2022-11-15T17:28:47.328Z,22.75
2022-11-15T17:31:15.864Z,23.00
2022-11-15T17:33:59.394Z,26.70
2022-11-15T17:36:36.372Z,20.92
2022-11-15T17:39:04.931Z,23.92
2022-11-15T17:41:31.927Z,24.70
2022-11-15T17:44:00.946Z,24.25
2022-11-15T17:46:28.724Z,21.95
2022-11-15T17:48:57.008Z,20.60
2022-11-15T17:51:24.275Z,22.70
2022-11-15T17:53:51.720Z,21.13
2022-11-15T17:56:20.902Z,23.25
2022-11-15T17:58:55.408Z,24.15
2022-11-15T18:01:29.775Z,19.30
2022-11-15T18:04:00.970Z,24.77
2022-11-15T18:06:30.681Z,23.05
2022-11-15T18:08:58.003Z,20.65
2022-11-15T18:11:30.941Z,25.52
2022-11-15T18:14:00.472Z,24.00
2022-11-15T18:16:32.729Z,19.38
2022-11-15T18:19:01.555Z,20.08
2022-11-15T18:21:30.091Z,17.13
2022-11-15T18:23:59.365Z,20.98
2022-11-15T18:26:29.023Z,17.83
2022-11-15T18:28:58.206Z,17.83
2022-11-15T18:31:27.586Z,19.02
2022-11-15T18:33:54.968Z,22.63
2022-11-15T18:36:27.536Z,22.70
2022-11-15T18:38:59.986Z,19.95
2022-11-15T18:41:30.885Z,20.35
2022-11-15T18:43:59.500Z,25.05
2022-11-15T18:46:29.237Z,21.85
2022-11-15T18:48:56.319Z,21.63
2022-11-15T18:51:25.681Z,19.75
2022-11-15T18:53:54.427Z,20.95
2022-11-15T18:56:23.030Z,20.08
2022-11-15T18:58:52.033Z,20.17
2022-11-15T19:01:21.404Z,21.10
2022-11-15T19:03:51.338Z,21.40
2022-11-15T19:06:19.416Z,20.13
2022-11-15T19:08:50.021Z,16.70
2022-11-15T19:11:24.331Z,19.67
2022-11-15T19:13:56.661Z,22.98
2022-11-15T19:16:29.409Z,18.98
2022-11-15T19:18:58.836Z,16.35
2022-11-15T19:21:32.021Z,19.83
2022-11-15T19:24:00.249Z,19.45
2022-11-15T19:26:28.811Z,19.88
2022-11-15T19:28:57.876Z,20.75
2022-11-15T19:31:26.481Z,18.88
2022-11-15T19:33:55.589Z,21.42
2022-11-15T19:36:26.917Z,23.25
2022-11-15T19:38:55.112Z,15.85
2022-11-15T19:41:24.156Z,17.40
2022-11-15T19:43:51.921Z,15.30
2022-11-15T19:46:21.188Z,16.13
2022-11-15T19:48:48.243Z,19.05
2022-11-15T19:51:17.188Z,19.02
2022-11-15T19:53:44.055Z,18.15
2022-11-15T19:56:15.557Z,21.67
2022-11-15T19:58:43.450Z,20.25
2022-11-15T20:01:19.198Z,18.45
2022-11-15T20:03:47.287Z,19.80
2022-11-15T20:06:17.363Z,19.75
2022-11-15T20:08:45.591Z,17.63
2022-11-15T20:11:13.394Z,16.48
2022-11-15T20:13:41.111Z,16.60
2022-11-15T20:16:10.189Z,21.38
2022-11-15T20:18:38.685Z,16.80
2022-11-15T20:21:06.451Z,15.77
2022-11-15T20:23:33.627Z,18.80
2022-11-15T20:26:14.979Z,16.65
2022-11-15T20:28:44.936Z,20.13
2022-11-15T20:31:14.763Z,17.35
2022-11-15T20:33:41.501Z,16.77
2022-11-15T20:36:12.477Z,19.27
2022-11-15T20:38:39.681Z,14.43
2022-11-15T20:41:06.627Z,15.82
2022-11-15T20:43:34.301Z,18.73
2022-11-15T20:46:01.857Z,18.60
2022-11-15T20:48:28.815Z,16.45
2022-11-15T20:51:11.395Z,14.88
2022-11-15T20:53:43.412Z,15.43
2022-11-15T20:56:18.982Z,15.35
2022-11-15T20:58:47.006Z,13.00
2022-11-15T21:01:15.857Z,14.13
2022-11-15T21:03:43.637Z,13.50
2022-11-15T21:06:11.330Z,13.73
2022-11-15T21:08:57.342Z,16.75
2022-11-15T21:11:43.690Z,17.17
2022-11-15T21:14:10.971Z,15.95
2022-11-15T21:16:38.833Z,13.45
2022-11-15T21:19:07.095Z,14.30
2022-11-15T21:21:35.339Z,14.35
2022-11-15T21:24:06.922Z,14.55
2022-11-15T21:26:34.628Z,14.75
2022-11-15T21:29:02.331Z,15.68
2022-11-15T21:31:30.249Z,15.45
2022-11-15T21:33:57.088Z,15.50
2022-11-15T21:36:25.481Z,16.90
2022-11-15T21:38:54.566Z,15.30
2022-11-15T21:41:22.893Z,18.27
2022-11-15T21:43:50.130Z,16.55
2022-11-15T21:46:19.175Z,13.70
2022-11-15T21:48:51.346Z,16.88
2022-11-15T21:51:18.291Z,17.40
2022-11-15T21:53:44.937Z,16.67
2022-11-15T21:56:14.486Z,17.50
2022-11-15T21:58:42.201Z,17.23
2022-11-15T22:01:30.249Z,13.68
2022-11-15T22:03:57.354Z,14.82
2022-11-15T22:06:24.590Z,13.82
2022-11-15T22:08:51.528Z,14.75
2022-11-15T22:11:18.601Z,18.67
2022-11-15T22:13:45.390Z,15.68
2022-11-15T22:16:15.235Z,12.45
2022-11-15T22:18:42.421Z,13.93
2022-11-15T22:21:15.262Z,13.00
2022-11-15T22:23:43.708Z,14.18
2022-11-15T22:26:13.349Z,13.18
2022-11-15T22:28:40.263Z,13.00
2022-11-15T22:31:07.332Z,20.77
2022-11-15T22:33:34.768Z,21.88
2022-11-15T22:36:02.447Z,18.55
2022-11-15T22:38:29.916Z,21.23
2022-11-15T22:40:57.367Z,22.95
2022-11-15T22:43:26.151Z,22.65
2022-11-15T22:45:57.089Z,23.23
2022-11-15T22:48:29.879Z,23.27
2022-11-15T22:50:56.778Z,14.50
2022-11-15T22:53:24.296Z,12.50
2022-11-15T22:55:52.361Z,16.45
2022-11-15T22:58:20.551Z,19.58
2022-11-15T23:00:52.193Z,18.13
2022-11-15T23:03:20.302Z,26.17
2022-11-15T23:05:47.995Z,27.35
2022-11-15T23:08:15.521Z,37.85
2022-11-15T23:11:03.223Z,50.58
2022-11-15T23:13:32.130Z,54.50
2022-11-15T23:16:22.527Z,48.50
2022-11-15T23:19:00.408Z,42.03
2022-11-15T23:21:57.279Z,28.88
2022-11-15T23:24:24.796Z,20.25
2022-11-15T23:26:54.171Z,18.95
2022-11-15T23:29:23.625Z,13.90
2022-11-15T23:32:10.265Z,16.08
2022-11-15T23:34:39.304Z,17.08
2022-11-15T23:37:09.292Z,17.13
2022-11-15T23:39:36.345Z,18.90
2022-11-15T23:42:08.811Z,20.20
2022-11-15T23:44:36.687Z,15.55
2022-11-15T23:47:03.762Z,17.80
2022-11-15T23:49:30.537Z,17.90
2022-11-15T23:51:57.290Z,15.18
2022-11-15T23:54:24.244Z,13.40
2022-11-15T23:56:50.953Z,15.40
2022-11-15T23:59:17.875Z,16.35
